createdAt,value
2019-02-21T00:02:21.506Z,26.03
2019-02-21T00:04:53.603Z,26.07
2019-02-21T00:07:25.916Z,26.83
2019-02-21T00:09:57.555Z,25.83
2019-02-21T00:12:29.576Z,23.73
2019-02-21T00:14:59.839Z,29.83
2019-02-21T00:17:30.127Z,26.57
2019-02-21T00:20:00.393Z,27.47
2019-02-21T00:22:30.635Z,23.23
2019-02-21T00:25:00.895Z,25.27
2019-02-21T00:27:31.155Z,23.33
2019-02-21T00:30:01.417Z,24.77
2019-02-21T00:32:33.240Z,24.47
2019-02-21T00:35:03.504Z,26.47
2019-02-21T00:37:33.744Z,19.97
2019-02-21T00:40:05.634Z,25.40
2019-02-21T00:42:35.886Z,24.33
2019-02-21T00:45:06.153Z,23.27
2019-02-21T00:47:36.402Z,21.47
2019-02-21T00:50:06.669Z,13.73
2019-02-21T00:52:37.735Z,23.43
2019-02-21T00:55:08.005Z,20.27
2019-02-21T00:57:38.262Z,16.97
2019-02-21T01:00:11.735Z,20.53
2019-02-21T01:02:42.070Z,15.83
2019-02-21T01:05:12.330Z,21.17
2019-02-21T01:07:42.673Z,21.17
2019-02-21T01:10:12.939Z,18.37
2019-02-21T01:12:44.155Z,17.70
2019-02-21T01:15:14.437Z,16.93
2019-02-21T01:17:44.693Z,15.20
2019-02-21T01:20:15.059Z,19.07
2019-02-21T01:22:45.314Z,17.00
2019-02-21T01:25:15.541Z,14.77
2019-02-21T01:27:46.025Z,23.40
2019-02-21T01:30:16.271Z,17.40
2019-02-21T01:32:46.517Z,22.27
2019-02-21T01:35:16.758Z,14.33
2019-02-21T01:37:47.012Z,13.97
2019-02-21T01:40:17.285Z,20.30
2019-02-21T01:42:47.563Z,18.70
2019-02-21T01:45:19.756Z,15.13
2019-02-21T01:47:50.001Z,16.07
2019-02-21T01:50:20.257Z,15.07
2019-02-21T01:52:51.284Z,15.67
2019-02-21T01:55:21.520Z,13.30
2019-02-21T01:57:51.813Z,15.10
2019-02-21T02:00:22.069Z,15.10
2019-02-21T02:02:52.324Z,17.27
2019-02-21T02:05:22.567Z,15.73
2019-02-21T02:07:52.832Z,16.27
2019-02-21T02:10:23.067Z,18.20
2019-02-21T02:12:53.319Z,19.13
2019-02-21T02:15:23.554Z,17.03
2019-02-21T02:17:53.804Z,19.33
2019-02-21T02:20:25.119Z,20.67
2019-02-21T02:22:55.375Z,17.47
2019-02-21T02:25:25.607Z,18.37
2019-02-21T02:27:56.152Z,18.23
2019-02-21T02:30:26.466Z,19.27
2019-02-21T02:32:56.703Z,15.83
2019-02-21T02:35:26.990Z,16.17
2019-02-21T02:37:57.256Z,14.10
2019-02-21T02:40:27.512Z,21.17
2019-02-21T02:42:57.785Z,21.93
2019-02-21T02:45:28.014Z,15.50
2019-02-21T02:47:58.273Z,17.27
2019-02-21T02:50:28.553Z,18.93
2019-02-21T02:52:59.653Z,16.70
2019-02-21T02:55:29.899Z,15.47
2019-02-21T02:58:00.167Z,16.87
2019-02-21T03:00:30.399Z,20.17
2019-02-21T03:03:00.656Z,16.20
2019-02-21T03:05:30.906Z,22.93
2019-02-21T03:08:01.171Z,16.47
2019-02-21T03:10:31.442Z,17.17
2019-02-21T03:13:01.776Z,19.07
2019-02-21T03:15:32.029Z,14.93
2019-02-21T03:18:02.294Z,23.17
2019-02-21T03:20:32.545Z,18.63
2019-02-21T03:23:02.799Z,16.97
2019-02-21T03:25:33.043Z,20.37
2019-02-21T03:28:03.363Z,17.20
2019-02-21T03:30:33.690Z,14.87
2019-02-21T03:33:03.994Z,15.20
2019-02-21T03:35:34.210Z,14.87
2019-02-21T03:38:04.463Z,17.23
2019-02-21T03:40:35.699Z,13.80
2019-02-21T03:43:07.674Z,17.77
2019-02-21T03:45:37.918Z,15.00
2019-02-21T03:48:08.173Z,16.47
2019-02-21T03:50:38.447Z,13.97
2019-02-21T03:53:09.487Z,12.70
2019-02-21T03:55:39.763Z,11.07
2019-02-21T03:58:10.046Z,13.77
2019-02-21T04:00:40.385Z,12.63
2019-02-21T04:03:10.710Z,14.10
2019-02-21T04:05:42.025Z,14.50
2019-02-21T04:08:12.595Z,13.73
2019-02-21T04:10:42.846Z,14.30
2019-02-21T04:13:15.327Z,10.33
2019-02-21T04:15:46.207Z,13.37
2019-02-21T04:18:16.463Z,12.67
2019-02-21T04:20:46.713Z,14.00
2019-02-21T04:23:17.024Z,12.70
2019-02-21T04:25:48.789Z,13.13
2019-02-21T04:28:19.065Z,18.23
2019-02-21T04:30:49.314Z,13.63
2019-02-21T04:33:19.559Z,15.00
2019-02-21T04:35:49.827Z,16.70
2019-02-21T04:38:20.143Z,16.27
2019-02-21T04:40:50.401Z,12.60
2019-02-21T04:43:20.649Z,11.43
2019-02-21T04:45:50.913Z,11.40
2019-02-21T04:48:21.161Z,17.07
2019-02-21T04:50:54.400Z,11.00
2019-02-21T04:53:24.143Z,14.13
2019-02-21T04:55:54.393Z,16.83
2019-02-21T04:58:24.656Z,16.93
2019-02-21T05:00:54.907Z,18.03
2019-02-21T05:03:25.152Z,18.87
2019-02-21T05:05:55.577Z,13.47
2019-02-21T05:08:25.825Z,16.53
2019-02-21T05:10:56.078Z,13.73
2019-02-21T05:13:26.332Z,15.13
2019-02-21T05:15:56.687Z,22.20
2019-02-21T05:18:26.977Z,15.60
2019-02-21T05:20:57.216Z,15.13
2019-02-21T05:23:27.485Z,14.03
2019-02-21T05:25:57.747Z,15.37
2019-02-21T05:28:29.743Z,16.03
2019-02-21T05:31:07.491Z,14.40
2019-02-21T05:33:51.384Z,12.30
2019-02-21T05:36:27.306Z,17.37
2019-02-21T05:39:01.908Z,14.47
2019-02-21T05:41:47.342Z,20.13
2019-02-21T05:44:25.138Z,16.20
2019-02-21T05:46:57.061Z,16.53
2019-02-21T05:49:31.839Z,16.30
2019-02-21T05:52:19.057Z,18.27
2019-02-21T05:55:09.911Z,13.33
2019-02-21T05:57:41.793Z,13.53
2019-02-21T06:00:16.167Z,17.13
2019-02-21T06:03:03.966Z,19.20
2019-02-21T06:05:35.890Z,17.73
2019-02-21T06:08:13.667Z,16.97
2019-02-21T06:10:45.549Z,12.80
2019-02-21T06:13:20.399Z,14.53
2019-02-21T06:15:52.294Z,18.10
2019-02-21T06:18:24.257Z,15.37
2019-02-21T06:20:59.114Z,16.23
2019-02-21T06:23:35.396Z,21.67
2019-02-21T06:26:13.392Z,16.30
2019-02-21T06:29:03.360Z,15.77
2019-02-21T06:31:33.603Z,15.60
2019-02-21T06:34:03.844Z,21.20
2019-02-21T06:36:35.611Z,16.23
2019-02-21T06:39:08.168Z,21.27
2019-02-21T06:41:38.429Z,21.77
2019-02-21T06:44:08.708Z,16.93
2019-02-21T06:46:38.940Z,19.40
2019-02-21T06:49:09.200Z,22.67
2019-02-21T06:51:39.520Z,19.53
2019-02-21T06:54:09.798Z,17.90
2019-02-21T06:56:40.085Z,20.43
2019-02-21T06:59:10.328Z,23.67
2019-02-21T07:01:40.593Z,28.57
2019-02-21T07:04:10.865Z,29.67
2019-02-21T07:06:41.334Z,34.63
2019-02-21T07:09:11.551Z,33.43
2019-02-21T07:11:41.801Z,36.40
2019-02-21T07:14:12.063Z,30.57
2019-02-21T07:16:42.327Z,34.27
2019-02-21T07:19:12.602Z,30.07
2019-02-21T07:21:42.965Z,29.80
2019-02-21T07:24:13.220Z,28.23
2019-02-21T07:26:43.487Z,24.83
2019-02-21T07:29:13.758Z,28.53
2019-02-21T07:31:44.097Z,25.77
2019-02-21T07:34:14.413Z,27.07
2019-02-21T07:36:44.660Z,24.60
2019-02-21T07:39:18.545Z,26.33
2019-02-21T07:41:46.884Z,26.67
2019-02-21T07:44:17.142Z,28.80
2019-02-21T07:46:47.387Z,26.90
2019-02-21T07:49:17.661Z,27.07
2019-02-21T07:51:48.045Z,31.90
2019-02-21T07:54:18.272Z,32.00
2019-02-21T07:56:48.529Z,28.00
2019-02-21T07:59:18.786Z,37.27
2019-02-21T08:01:49.083Z,34.40
2019-02-21T08:04:19.316Z,36.03
2019-02-21T08:06:49.687Z,29.83
2019-02-21T08:09:19.948Z,39.93
2019-02-21T08:11:50.217Z,34.97
2019-02-21T08:14:20.471Z,44.63
2019-02-21T08:16:50.724Z,40.17
2019-02-21T08:19:22.058Z,39.47
2019-02-21T08:21:54.093Z,38.80
2019-02-21T08:24:24.497Z,36.07
2019-02-21T08:26:55.161Z,36.83
2019-02-21T08:29:25.441Z,32.57
2019-02-21T08:31:55.707Z,34.73
2019-02-21T08:34:27.693Z,36.53
2019-02-21T08:36:58.019Z,35.27
2019-02-21T08:39:28.306Z,30.40
2019-02-21T08:41:58.746Z,32.13
2019-02-21T08:44:29.166Z,31.80
2019-02-21T08:46:59.438Z,33.23
2019-02-21T08:49:29.737Z,35.23
2019-02-21T08:51:59.984Z,32.73
2019-02-21T08:54:31.318Z,31.90
2019-02-21T08:57:01.576Z,35.40
2019-02-21T08:59:31.841Z,39.83
2019-02-21T09:02:04.888Z,39.47
2019-02-21T09:04:34.152Z,48.70
2019-02-21T09:07:04.405Z,39.30
2019-02-21T09:09:34.753Z,41.43
2019-02-21T09:12:05.739Z,45.70
2019-02-21T09:14:36.227Z,37.97
2019-02-21T09:17:06.486Z,38.37
2019-02-21T09:19:38.361Z,39.13
2019-02-21T09:22:08.615Z,33.33
2019-02-21T09:24:42.227Z,41.07
2019-02-21T09:27:11.901Z,32.87
2019-02-21T09:29:42.239Z,32.50
2019-02-21T09:32:12.511Z,32.80
2019-02-21T09:34:42.789Z,35.87
2019-02-21T09:37:13.068Z,35.53
2019-02-21T09:39:44.444Z,40.63
2019-02-21T09:42:14.785Z,33.87
2019-02-21T09:44:45.133Z,29.40
2019-02-21T09:47:15.401Z,32.77
2019-02-21T09:49:45.682Z,33.90
2019-02-21T09:52:15.946Z,33.87
2019-02-21T09:54:47.500Z,32.83
2019-02-21T09:57:18.859Z,33.37
2019-02-21T09:59:49.132Z,34.13
2019-02-21T10:02:19.385Z,34.77
2019-02-21T10:04:49.639Z,35.10
2019-02-21T10:07:19.895Z,29.33
2019-02-21T10:09:50.171Z,33.60
2019-02-21T10:12:20.416Z,34.53
2019-02-21T10:14:50.747Z,39.13
2019-02-21T10:17:20.997Z,32.07
2019-02-21T10:19:51.272Z,30.10
2019-02-21T10:22:21.569Z,26.40
2019-02-21T10:24:56.944Z,34.50
2019-02-21T10:27:27.302Z,32.80
2019-02-21T10:29:57.542Z,37.60
2019-02-21T10:32:28.764Z,34.40
2019-02-21T10:34:59.035Z,34.00
2019-02-21T10:37:29.279Z,35.00
2019-02-21T10:39:59.567Z,37.43
2019-02-21T10:42:29.830Z,41.63
2019-02-21T10:45:00.649Z,34.17
2019-02-21T10:47:32.183Z,37.83
2019-02-21T10:50:02.691Z,38.07
2019-02-21T10:52:32.986Z,36.67
2019-02-21T10:55:03.530Z,36.50
2019-02-21T10:57:33.802Z,37.87
2019-02-21T11:00:12.407Z,38.00
2019-02-21T11:02:43.989Z,35.93
2019-02-21T11:05:14.321Z,38.67
2019-02-21T11:07:44.567Z,37.07
2019-02-21T11:10:19.174Z,40.40
2019-02-21T11:12:49.416Z,40.97
2019-02-21T11:15:22.015Z,33.63
2019-02-21T11:17:52.277Z,33.03
2019-02-21T11:20:22.719Z,34.57
2019-02-21T11:22:54.477Z,37.50
2019-02-21T11:25:24.742Z,37.03
2019-02-21T11:27:55.027Z,39.00
2019-02-21T11:30:25.277Z,36.50
2019-02-21T11:32:55.555Z,37.53
2019-02-21T11:35:25.841Z,37.83
2019-02-21T11:37:56.093Z,37.70
2019-02-21T11:40:26.619Z,35.50
2019-02-21T11:42:56.879Z,42.77
2019-02-21T11:45:27.248Z,37.57
2019-02-21T11:47:57.531Z,40.63
2019-02-21T11:50:27.780Z,38.03
2019-02-21T11:52:58.076Z,38.60
2019-02-21T11:55:28.358Z,39.10
2019-02-21T11:57:59.444Z,33.73
2019-02-21T12:00:32.378Z,42.60
2019-02-21T12:03:02.939Z,45.27
2019-02-21T12:05:33.288Z,45.90
2019-02-21T12:08:03.565Z,42.30
2019-02-21T12:10:33.942Z,42.97
2019-02-21T12:13:04.245Z,42.30
2019-02-21T12:15:34.507Z,39.77
2019-02-21T12:18:04.869Z,42.57
2019-02-21T12:20:35.315Z,43.97
2019-02-21T12:23:05.608Z,41.33
2019-02-21T12:25:35.933Z,45.70
2019-02-21T12:28:06.234Z,41.30
2019-02-21T12:30:37.745Z,41.23
2019-02-21T12:33:08.109Z,40.73
2019-02-21T12:35:38.402Z,37.40
2019-02-21T12:38:13.543Z,45.47
2019-02-21T12:40:44.462Z,36.73
2019-02-21T12:43:14.741Z,40.47
2019-02-21T12:45:45.101Z,38.30
2019-02-21T12:48:15.386Z,42.03
2019-02-21T12:50:45.651Z,37.97
2019-02-21T12:53:15.901Z,33.43
2019-02-21T12:55:46.221Z,40.27
2019-02-21T12:58:17.353Z,36.80
2019-02-21T13:00:48.705Z,35.77
2019-02-21T13:03:18.973Z,32.10
2019-02-21T13:05:49.266Z,33.67
2019-02-21T13:08:19.672Z,34.40
2019-02-21T13:10:52.434Z,31.23
2019-02-21T13:13:23.249Z,29.73
2019-02-21T13:15:53.515Z,30.50
2019-02-21T13:18:23.784Z,29.93
2019-02-21T13:20:55.081Z,30.93
2019-02-21T13:23:25.361Z,29.63
2019-02-21T13:25:55.891Z,29.43
2019-02-21T13:28:27.606Z,30.07
2019-02-21T13:30:58.024Z,32.23
2019-02-21T13:33:29.394Z,30.73
2019-02-21T13:35:59.656Z,31.73
2019-02-21T13:38:29.931Z,31.57
2019-02-21T13:41:00.176Z,30.23
2019-02-21T13:43:30.491Z,29.43
2019-02-21T13:46:00.784Z,25.83
2019-02-21T13:48:31.061Z,27.03
2019-02-21T13:51:01.387Z,25.73
2019-02-21T13:53:31.614Z,27.80
2019-02-21T13:56:01.893Z,28.50
2019-02-21T13:58:32.173Z,31.40
2019-02-21T14:01:02.422Z,27.93
2019-02-21T14:03:33.823Z,31.47
2019-02-21T14:06:05.063Z,27.10
2019-02-21T14:08:35.327Z,31.03
2019-02-21T14:11:05.608Z,29.70
2019-02-21T14:13:36.070Z,25.73
2019-02-21T14:16:06.342Z,30.03
2019-02-21T14:18:36.718Z,25.87
2019-02-21T14:21:06.976Z,28.10
2019-02-21T14:23:37.468Z,27.73
2019-02-21T14:26:07.784Z,25.80
2019-02-21T14:28:38.192Z,26.47
2019-02-21T14:31:13.427Z,27.93
2019-02-21T14:33:43.675Z,35.20
2019-02-21T14:36:16.882Z,32.97
2019-02-21T14:38:46.193Z,27.40
2019-02-21T14:41:18.121Z,32.07
2019-02-21T14:51:42.917Z,32.33
2019-02-21T14:54:13.190Z,27.67
2019-02-21T14:56:43.583Z,33.57
2019-02-21T14:59:13.922Z,31.13
2019-02-21T15:01:48.285Z,30.63
2019-02-21T15:04:18.833Z,30.80
2019-02-21T15:06:50.345Z,33.27
2019-02-21T15:09:20.830Z,31.87
2019-02-21T15:11:51.259Z,30.17
2019-02-21T15:18:21.555Z,31.53
2019-02-21T15:20:51.899Z,30.67
2019-02-21T15:23:22.144Z,34.50
2019-02-21T15:25:52.740Z,31.60
2019-02-21T15:28:26.504Z,31.60
2019-02-21T15:31:00.259Z,36.30
2019-02-21T15:33:33.614Z,32.73
2019-02-21T15:36:04.064Z,36.77
2019-02-21T15:38:34.343Z,35.17
2019-02-21T15:41:04.816Z,38.70
2019-02-21T15:43:35.139Z,35.33
2019-02-21T15:46:11.850Z,36.30
2019-02-21T15:48:44.509Z,38.20
2019-02-21T15:51:14.228Z,37.47
2019-02-21T15:53:44.488Z,37.03
2019-02-21T15:56:14.890Z,38.37
2019-02-21T15:58:52.680Z,36.53
2019-02-21T16:01:27.401Z,35.60
2019-02-21T16:04:16.943Z,36.53
2019-02-21T16:06:51.791Z,36.23
2019-02-21T16:09:19.312Z,38.67
2019-02-21T16:16:08.720Z,41.37
2019-02-21T16:19:24.015Z,37.83
2019-02-21T16:21:54.173Z,45.53
2019-02-21T16:24:24.420Z,40.60
2019-02-21T16:26:54.670Z,39.03
2019-02-21T16:29:25.933Z,42.20
2019-02-21T16:31:58.678Z,38.07
2019-02-21T16:34:33.071Z,39.60
2019-02-21T16:37:05.697Z,36.47
2019-02-21T16:39:41.279Z,36.60
2019-02-21T16:42:11.821Z,33.10
2019-02-21T16:44:43.701Z,33.37
2019-02-21T16:47:17.799Z,39.73
2019-02-21T16:49:49.354Z,36.00
2019-02-21T16:52:20.035Z,37.40
2019-02-21T16:54:53.416Z,32.93
2019-02-21T16:57:22.859Z,37.53
2019-02-21T17:00:01.468Z,36.27
2019-02-21T17:02:39.782Z,37.57
2019-02-21T17:05:13.405Z,33.23
2019-02-21T17:07:44.398Z,40.90
2019-02-21T17:10:16.761Z,42.37
2019-02-21T17:12:48.811Z,35.30
2019-02-21T17:15:21.102Z,38.77
2019-02-21T17:17:51.605Z,33.87
2019-02-21T17:20:25.368Z,35.63
2019-02-21T17:22:55.733Z,32.93
2019-02-21T17:25:28.527Z,38.10
2019-02-21T17:27:59.241Z,34.73
2019-02-21T17:30:29.511Z,38.70
2019-02-21T17:32:59.854Z,36.27
2019-02-21T17:35:30.114Z,35.67
2019-02-21T17:38:00.445Z,35.60
2019-02-21T17:40:31.723Z,34.20
2019-02-21T17:43:02.469Z,35.37
2019-02-21T17:45:33.025Z,42.43
2019-02-21T17:48:03.873Z,37.20
2019-02-21T17:54:45.754Z,37.73
2019-02-21T18:11:38.764Z,39.23
2019-02-21T18:14:09.048Z,35.87
2019-02-21T18:16:40.495Z,36.43
2019-02-21T18:19:14.591Z,35.63
2019-02-21T18:21:45.274Z,32.20
2019-02-21T18:24:19.383Z,36.43
2019-02-21T18:26:54.715Z,35.83
2019-02-21T18:29:26.969Z,36.43
2019-02-21T18:35:58.354Z,32.30
2019-02-21T18:38:30.917Z,37.13
2019-02-21T18:41:01.999Z,36.27
2019-02-21T18:43:32.801Z,36.23
2019-02-21T18:46:03.219Z,32.37
2019-02-21T18:48:33.840Z,32.47
2019-02-21T18:51:05.357Z,35.37
2019-02-21T18:53:36.374Z,29.07
2019-02-21T18:56:16.016Z,32.43
2019-02-21T18:58:55.641Z,36.73
2019-02-21T19:01:40.062Z,35.87
2019-02-21T19:04:56.529Z,32.40
2019-02-21T19:07:33.981Z,24.73
2019-02-21T19:10:11.263Z,33.20
2019-02-21T19:12:43.811Z,36.77
2019-02-21T19:15:23.607Z,35.00
2019-02-21T19:18:25.016Z,36.73
2019-02-21T19:24:57.146Z,29.53
2019-02-21T19:27:36.908Z,25.43
2019-02-21T19:30:00.623Z,28.43
2019-02-21T19:32:34.134Z,30.87
2019-02-21T19:35:12.268Z,30.43
2019-02-21T19:38:22.924Z,26.23
2019-02-21T19:40:58.601Z,24.83
2019-02-21T19:43:32.756Z,26.70
2019-02-21T19:46:09.429Z,27.87
2019-02-21T19:48:46.223Z,31.00
2019-02-21T19:51:19.316Z,26.13
2019-02-21T19:54:00.791Z,30.13
2019-02-21T19:56:35.677Z,26.93
2019-02-21T19:59:09.265Z,30.83
2019-02-21T20:01:39.614Z,28.03
2019-02-21T20:04:09.900Z,28.53
2019-02-21T20:06:41.228Z,27.70
2019-02-21T20:09:13.258Z,26.50
2019-02-21T20:11:43.526Z,24.47
2019-02-21T20:14:13.799Z,24.53
2019-02-21T20:16:45.862Z,24.07
2019-02-21T20:19:16.947Z,26.67
2019-02-21T20:21:47.380Z,28.80
2019-02-21T20:24:18.504Z,23.03
2019-02-21T20:26:49.473Z,29.13
2019-02-21T20:29:20.132Z,23.63
2019-02-21T20:31:50.997Z,26.03
2019-02-21T20:34:22.899Z,25.17
2019-02-21T20:36:54.019Z,25.20
2019-02-21T20:39:25.795Z,24.27
2019-02-21T20:41:57.099Z,24.03
2019-02-21T20:44:32.306Z,24.20
2019-02-21T20:47:02.638Z,27.70
2019-02-21T20:49:32.904Z,33.23
2019-02-21T20:52:05.782Z,29.87
2019-02-21T20:54:36.683Z,25.80
2019-02-21T20:57:09.754Z,26.00
2019-02-21T20:59:40.491Z,28.07
2019-02-21T21:02:10.993Z,25.93
2019-02-21T21:04:41.269Z,26.13
2019-02-21T21:07:24.545Z,32.67
2019-02-21T21:09:48.739Z,27.73
2019-02-21T21:12:19.067Z,26.90
2019-02-21T21:14:49.328Z,30.93
2019-02-21T21:17:21.377Z,29.90
2019-02-21T21:19:52.633Z,27.17
2019-02-21T21:22:24.596Z,25.37
2019-02-21T21:24:54.935Z,23.00
2019-02-21T21:27:25.346Z,30.33
2019-02-21T21:29:55.710Z,24.80
2019-02-21T21:32:26.196Z,28.20
2019-02-21T21:34:56.472Z,22.00
2019-02-21T21:37:27.216Z,32.00
2019-02-21T21:39:58.262Z,28.00
2019-02-21T21:42:28.526Z,24.43
2019-02-21T21:44:58.811Z,26.40
2019-02-21T21:47:29.083Z,26.13
2019-02-21T21:50:01.691Z,23.67
2019-02-21T21:52:32.334Z,24.00
2019-02-21T21:55:03.587Z,25.17
2019-02-21T21:57:33.873Z,26.60
2019-02-21T22:00:07.225Z,25.70
2019-02-21T22:02:39.861Z,23.87
2019-02-21T22:05:10.988Z,24.63
2019-02-21T22:07:41.333Z,25.60
2019-02-21T22:10:15.286Z,26.57
2019-02-21T22:12:45.616Z,27.57
2019-02-21T22:15:19.495Z,24.07
2019-02-21T22:17:49.754Z,26.40
2019-02-21T22:24:12.366Z,28.70
2019-02-21T22:26:42.652Z,21.10
2019-02-21T22:29:14.487Z,25.00
2019-02-21T22:31:44.747Z,26.53
2019-02-21T22:34:15.942Z,24.57
2019-02-21T22:36:47.175Z,29.17
2019-02-21T22:39:17.426Z,22.87
2019-02-21T22:41:47.716Z,26.13
2019-02-21T22:44:17.991Z,26.83
2019-02-21T22:46:48.302Z,26.60
2019-02-21T22:49:18.568Z,24.50
2019-02-21T22:51:48.932Z,27.50
2019-02-21T22:54:19.199Z,21.93
2019-02-21T22:56:49.478Z,22.33
2019-02-21T22:59:19.742Z,24.00
2019-02-21T23:01:50.998Z,20.00
2019-02-21T23:04:24.777Z,20.10
2019-02-21T23:06:58.381Z,23.10
2019-02-21T23:09:28.642Z,24.17
2019-02-21T23:11:58.920Z,23.23
2019-02-21T23:14:29.255Z,22.37
2019-02-21T23:16:59.534Z,20.83
2019-02-21T23:19:29.783Z,22.40
2019-02-21T23:22:00.086Z,22.60
2019-02-21T23:24:30.338Z,20.77
2019-02-21T23:27:00.608Z,21.97
2019-02-21T23:29:30.860Z,20.57
2019-02-21T23:32:03.302Z,19.97
2019-02-21T23:34:34.747Z,22.03
2019-02-21T23:37:05.027Z,18.40
2019-02-21T23:39:38.341Z,18.90
2019-02-21T23:42:07.294Z,18.03
2019-02-21T23:44:37.560Z,19.10
2019-02-21T23:47:07.841Z,16.43
2019-02-21T23:49:38.122Z,29.73
2019-02-21T23:52:08.379Z,18.30
2019-02-21T23:54:39.882Z,16.60
2019-02-21T23:57:28.512Z,15.00
2019-02-21T23:59:58.909Z,14.63
